createdAt,value
2022-09-15T00:02:08.497Z,90.00
2022-09-15T00:07:07.778Z,89.91
2022-09-15T00:12:08.426Z,90.03
2022-09-15T00:17:07.935Z,89.96
2022-09-15T00:22:06.838Z,90.18
2022-09-15T00:27:06.422Z,90.56
2022-09-15T00:32:08.378Z,90.97
2022-09-15T00:37:08.439Z,91.25
2022-09-15T00:42:08.744Z,91.47
2022-09-15T00:47:20.002Z,91.98
2022-09-15T00:52:27.143Z,91.72
2022-09-15T00:57:38.457Z,91.57
2022-09-15T01:02:40.499Z,91.60
2022-09-15T01:07:44.805Z,91.64
2022-09-15T01:12:45.112Z,91.45
2022-09-15T01:18:01.350Z,91.27
2022-09-15T01:23:36.588Z,91.33
2022-09-15T01:29:12.048Z,91.45
2022-09-15T01:34:19.972Z,91.43
2022-09-15T01:39:26.278Z,91.35
2022-09-15T01:44:30.301Z,91.23
2022-09-15T01:49:36.455Z,91.17
2022-09-15T01:54:41.723Z,91.33
2022-09-15T01:59:40.992Z,91.83
2022-09-15T02:04:48.890Z,92.05
2022-09-15T02:09:57.585Z,92.02
2022-09-15T02:15:08.029Z,92.12
2022-09-15T02:20:18.223Z,92.16
2022-09-15T02:25:23.842Z,92.18
2022-09-15T02:30:25.350Z,92.47
2022-09-15T02:35:26.283Z,92.59
2022-09-15T02:40:26.746Z,92.43
2022-09-15T02:45:27.127Z,92.23
2022-09-15T02:50:27.448Z,91.84
2022-09-15T02:55:27.391Z,91.46
2022-09-15T03:00:26.334Z,91.50
2022-09-15T03:05:28.726Z,91.10
2022-09-15T03:10:29.546Z,91.79
2022-09-15T03:15:29.960Z,91.85
2022-09-15T03:20:30.630Z,92.40
2022-09-15T03:25:29.946Z,92.51
2022-09-15T03:30:29.236Z,92.46
2022-09-15T03:35:28.356Z,92.69
2022-09-15T03:40:27.386Z,92.71
2022-09-15T03:45:27.470Z,92.89
2022-09-15T03:50:27.158Z,92.90
2022-09-15T03:55:26.272Z,92.84
2022-09-15T04:00:26.695Z,92.60
2022-09-15T04:05:26.042Z,92.39
2022-09-15T04:10:25.784Z,92.58
2022-09-15T04:15:25.969Z,92.63
2022-09-15T04:20:25.994Z,92.60
2022-09-15T04:25:25.978Z,92.56
2022-09-15T04:30:25.167Z,92.13
2022-09-15T04:35:25.403Z,92.12
2022-09-15T04:40:24.297Z,92.14
2022-09-15T04:45:23.918Z,92.15
2022-09-15T04:50:22.703Z,92.05
2022-09-15T04:55:22.648Z,91.93
2022-09-15T05:00:23.455Z,91.82
2022-09-15T05:05:23.478Z,91.70
2022-09-15T05:10:23.124Z,91.42
2022-09-15T05:15:24.397Z,91.30
2022-09-15T05:20:24.814Z,91.01
2022-09-15T05:25:25.561Z,90.98
2022-09-15T05:30:44.404Z,90.56
2022-09-15T05:35:53.230Z,89.56
2022-09-15T05:40:53.444Z,89.48
2022-09-15T05:46:00.114Z,88.85
2022-09-15T05:50:59.933Z,88.31
2022-09-15T05:56:02.676Z,88.20
2022-09-15T06:01:11.329Z,87.32
2022-09-15T06:06:12.175Z,87.19
2022-09-15T06:11:15.318Z,87.14
2022-09-15T06:16:19.810Z,87.34
2022-09-15T06:21:23.348Z,87.70
2022-09-15T06:26:23.246Z,87.87
2022-09-15T06:31:25.775Z,87.85
2022-09-15T06:36:27.389Z,87.12
2022-09-15T06:41:35.353Z,85.66
2022-09-15T06:46:46.355Z,85.65
2022-09-15T06:51:46.106Z,85.12
2022-09-15T06:56:46.866Z,84.95
2022-09-15T07:01:46.377Z,84.36
2022-09-15T07:06:45.519Z,84.58
2022-09-15T07:11:45.898Z,84.81
2022-09-15T07:16:45.234Z,83.97
2022-09-15T07:21:44.879Z,81.93
2022-09-15T07:26:44.331Z,82.16
2022-09-15T07:31:43.232Z,80.68
2022-09-15T07:36:42.498Z,79.89
2022-09-15T07:41:41.317Z,78.70
2022-09-15T07:46:40.230Z,77.63
2022-09-15T07:51:39.853Z,78.27
2022-09-15T07:56:39.487Z,77.63
2022-09-15T08:01:38.162Z,76.85
2022-09-15T08:06:37.030Z,76.54
2022-09-15T08:11:36.004Z,73.26
2022-09-15T08:16:35.236Z,74.04
2022-09-15T08:21:34.715Z,70.33
2022-09-15T08:26:36.394Z,69.68
2022-09-15T08:31:36.101Z,70.61
2022-09-15T08:36:35.568Z,69.16
2022-09-15T08:41:39.518Z,66.74
2022-09-15T08:46:44.902Z,67.55
2022-09-15T08:51:50.537Z,65.75
2022-09-15T08:56:50.166Z,63.43
2022-09-15T09:02:05.750Z,65.01
2022-09-15T09:07:21.843Z,64.32
2022-09-15T09:12:42.011Z,60.67
2022-09-15T09:18:13.367Z,59.64
2022-09-15T09:23:16.495Z,60.07
2022-09-15T09:28:40.226Z,57.88
2022-09-15T09:33:51.252Z,58.67
2022-09-15T09:38:52.376Z,58.16
2022-09-15T09:43:53.193Z,56.70
2022-09-15T09:49:00.315Z,56.85
2022-09-15T09:54:07.751Z,54.28
2022-09-15T09:59:18.733Z,52.99
2022-09-15T10:04:24.243Z,54.06
2022-09-15T10:09:24.238Z,56.17
2022-09-15T10:14:30.767Z,55.13
2022-09-15T10:19:33.325Z,55.30
2022-09-15T10:24:44.307Z,53.72
2022-09-15T10:29:44.116Z,53.13
2022-09-15T10:34:48.889Z,51.76
2022-09-15T10:39:56.634Z,54.00
2022-09-15T10:45:12.506Z,54.28
2022-09-15T10:50:23.708Z,55.58
2022-09-15T10:55:52.748Z,56.18
2022-09-15T11:01:12.709Z,56.08
2022-09-15T11:06:25.572Z,55.63
2022-09-15T11:11:36.349Z,56.03
2022-09-15T11:16:59.775Z,56.28
2022-09-15T11:22:05.824Z,57.65
2022-09-15T11:27:15.817Z,56.48
2022-09-15T11:32:22.425Z,54.72
2022-09-15T11:37:28.271Z,54.04
2022-09-15T11:42:34.653Z,54.25
2022-09-15T11:47:41.564Z,54.82
2022-09-15T11:52:59.461Z,54.32
2022-09-15T11:58:17.363Z,53.46
2022-09-15T12:03:30.809Z,55.17
2022-09-15T12:08:38.855Z,54.13
2022-09-15T12:13:41.110Z,53.71
2022-09-15T12:18:49.044Z,53.68
2022-09-15T12:24:08.267Z,51.12
2022-09-15T12:29:33.211Z,51.98
2022-09-15T12:34:40.688Z,55.10
2022-09-15T12:39:46.119Z,56.20
2022-09-15T12:44:52.265Z,56.43
2022-09-15T12:50:05.752Z,56.18
2022-09-15T12:55:09.269Z,54.24
2022-09-15T13:00:42.483Z,54.30
2022-09-15T13:06:20.255Z,55.77
2022-09-15T13:11:27.289Z,56.31
2022-09-15T13:16:35.309Z,55.30
2022-09-15T13:21:39.649Z,54.68
2022-09-15T13:26:39.702Z,53.78
2022-09-15T13:31:56.079Z,53.12
2022-09-15T13:42:59.176Z,54.85
2022-09-15T13:48:27.448Z,55.37
2022-09-15T13:53:43.238Z,56.26
2022-09-15T13:58:56.276Z,57.00
2022-09-15T14:04:04.891Z,57.72
2022-09-15T14:09:11.269Z,58.32
2022-09-15T14:14:23.069Z,57.33
2022-09-15T14:19:35.496Z,56.21
2022-09-15T14:24:41.562Z,55.47
2022-09-15T14:29:45.010Z,55.19
2022-09-15T14:39:56.854Z,56.76
2022-09-15T14:50:20.276Z,57.83
2022-09-15T14:55:25.490Z,58.12
2022-09-15T15:00:34.237Z,58.27
2022-09-15T15:05:43.944Z,58.57
2022-09-15T15:10:45.530Z,57.88
2022-09-15T15:15:46.035Z,57.52
2022-09-15T15:20:53.562Z,57.47
2022-09-15T15:26:16.072Z,58.47
2022-09-15T15:31:22.418Z,58.75
2022-09-15T15:36:26.134Z,59.99
2022-09-15T15:41:29.058Z,61.06
2022-09-15T15:46:54.826Z,60.99
2022-09-15T15:51:55.984Z,62.23
2022-09-15T15:56:57.027Z,63.50
2022-09-15T16:01:59.627Z,63.94
2022-09-15T16:06:59.923Z,62.46
2022-09-15T16:11:58.534Z,62.04
2022-09-15T16:16:58.681Z,62.78
2022-09-15T16:21:57.497Z,62.85
2022-09-15T16:26:57.175Z,63.81
2022-09-15T16:31:56.516Z,63.73
2022-09-15T16:36:55.691Z,64.51
2022-09-15T16:41:54.883Z,65.04
2022-09-15T16:46:54.485Z,65.59
2022-09-15T16:51:53.504Z,65.65
2022-09-15T16:56:52.905Z,65.90
2022-09-15T17:01:52.731Z,66.34
2022-09-15T17:06:52.232Z,66.54
2022-09-15T17:11:51.952Z,67.00
2022-09-15T17:16:53.117Z,67.30
2022-09-15T17:21:53.582Z,67.90
2022-09-15T17:26:52.436Z,68.56
2022-09-15T17:31:51.996Z,68.79
2022-09-15T17:36:53.034Z,69.44
2022-09-15T17:41:52.192Z,69.55
2022-09-15T17:46:51.914Z,69.57
2022-09-15T17:51:51.819Z,69.79
2022-09-15T17:56:50.901Z,70.30
2022-09-15T18:01:53.026Z,70.66
2022-09-15T18:06:54.806Z,70.84
2022-09-15T18:16:58.363Z,71.44
2022-09-15T18:21:58.878Z,71.95
2022-09-15T18:26:58.666Z,72.57
2022-09-15T18:31:59.636Z,72.99
2022-09-15T18:36:59.206Z,73.33
2022-09-15T18:41:58.576Z,73.38
2022-09-15T18:46:57.386Z,73.60
2022-09-15T18:51:56.790Z,73.83
2022-09-15T18:56:56.553Z,74.27
2022-09-15T19:01:58.236Z,74.07
2022-09-15T19:06:59.000Z,74.09
2022-09-15T19:11:57.621Z,74.13
2022-09-15T19:16:58.446Z,74.07
2022-09-15T19:21:58.123Z,73.89
2022-09-15T19:26:56.766Z,74.33
2022-09-15T19:31:55.787Z,74.28
2022-09-15T19:36:54.616Z,74.57
2022-09-15T19:41:54.757Z,74.59
2022-09-15T19:46:54.776Z,74.75
2022-09-15T19:51:55.670Z,75.18
2022-09-15T19:56:55.418Z,75.30
2022-09-15T20:01:54.918Z,75.64
2022-09-15T20:06:55.189Z,75.64
2022-09-15T20:11:57.654Z,75.75
2022-09-15T20:17:00.984Z,76.16
2022-09-15T20:22:02.176Z,75.87
2022-09-15T20:27:02.474Z,76.23
2022-09-15T20:32:02.421Z,76.09
2022-09-15T20:37:03.354Z,76.53
2022-09-15T20:42:04.098Z,77.08
2022-09-15T20:47:05.235Z,77.32
2022-09-15T20:52:05.807Z,77.89
2022-09-15T20:57:06.531Z,78.33
2022-09-15T21:02:06.310Z,78.79
2022-09-15T21:07:06.363Z,78.72
2022-09-15T21:12:07.711Z,79.00
2022-09-15T21:17:07.829Z,79.26
2022-09-15T21:22:07.770Z,79.27
2022-09-15T21:27:25.577Z,79.83
2022-09-15T21:32:27.489Z,80.37
2022-09-15T21:37:29.073Z,80.41
2022-09-15T21:42:31.424Z,80.86
2022-09-15T21:47:32.119Z,81.24
2022-09-15T21:52:32.629Z,81.56
2022-09-15T21:57:32.031Z,82.18
2022-09-15T22:02:32.277Z,82.48
2022-09-15T22:07:32.960Z,82.74
2022-09-15T22:12:32.900Z,83.00
2022-09-15T22:17:32.385Z,83.20
2022-09-15T22:22:34.701Z,83.57
2022-09-15T22:27:34.807Z,84.10
2022-09-15T22:32:34.504Z,84.60
2022-09-15T22:37:35.629Z,85.03
2022-09-15T22:42:36.310Z,85.30
2022-09-15T22:47:38.105Z,85.55
2022-09-15T22:52:37.868Z,85.83
2022-09-15T22:57:39.731Z,85.95
2022-09-15T23:02:40.074Z,86.40
2022-09-15T23:07:39.643Z,86.55
2022-09-15T23:12:38.968Z,86.97
2022-09-15T23:17:39.190Z,87.49
2022-09-15T23:22:39.508Z,87.80
2022-09-15T23:27:38.326Z,87.89
2022-09-15T23:32:38.245Z,87.89
2022-09-15T23:37:37.781Z,87.77
2022-09-15T23:42:37.392Z,87.61
2022-09-15T23:47:36.486Z,87.43
2022-09-15T23:52:36.040Z,87.36
2022-09-15T23:57:35.343Z,87.23
